createdAt,value
2018-07-30T00:01:22.445Z,100725.97
2018-07-30T00:03:51.615Z,100724.81
2018-07-30T00:06:20.743Z,100728.84
2018-07-30T00:08:49.893Z,100730.34
2018-07-30T00:11:19.025Z,100729.08
2018-07-30T00:13:48.126Z,100726.86
2018-07-30T00:16:17.363Z,100731.11
2018-07-30T00:18:46.477Z,100730.28
2018-07-30T00:21:15.619Z,100739.55
2018-07-30T00:23:44.733Z,100730.42
2018-07-30T00:26:13.884Z,100733.75
2018-07-30T00:28:43.027Z,100732.36
2018-07-30T00:31:12.157Z,100735.28
2018-07-30T00:33:41.253Z,100736.13
2018-07-30T00:36:10.355Z,100741.22
2018-07-30T00:38:39.538Z,100743.25
2018-07-30T00:41:08.661Z,100744.16
2018-07-30T00:43:37.790Z,100741.22
2018-07-30T00:46:07.029Z,100739.89
2018-07-30T00:48:36.181Z,100737.81
2018-07-30T00:51:05.308Z,100739.59
2018-07-30T00:53:34.471Z,100739.28
2018-07-30T00:56:03.638Z,100742.64
2018-07-30T00:58:32.794Z,100740.14
2018-07-30T01:01:01.923Z,100741.99
2018-07-30T01:03:31.510Z,100745.41
2018-07-30T01:06:00.631Z,100742.63
2018-07-30T01:08:29.790Z,100742.20
2018-07-30T01:10:58.897Z,100748.06
2018-07-30T01:13:28.014Z,100744.72
2018-07-30T01:15:57.153Z,100752.60
2018-07-30T01:18:26.281Z,100747.62
2018-07-30T01:20:55.838Z,100749.95
2018-07-30T01:23:24.986Z,100745.11
2018-07-30T01:25:54.123Z,100753.05
2018-07-30T01:28:23.253Z,100747.19
2018-07-30T01:30:52.361Z,100742.06
2018-07-30T01:33:21.497Z,100745.57
2018-07-30T01:35:50.666Z,100739.86
2018-07-30T01:38:19.782Z,100733.61
2018-07-30T01:40:48.986Z,100734.05
2018-07-30T01:43:18.109Z,100736.19
2018-07-30T01:45:47.217Z,100726.56
2018-07-30T01:48:16.345Z,100731.66
2018-07-30T01:50:45.475Z,100737.45
2018-07-30T01:53:14.746Z,100735.48
2018-07-30T01:55:43.838Z,100739.59
2018-07-30T01:58:12.957Z,100730.44
2018-07-30T02:00:42.085Z,100732.55
2018-07-30T02:03:11.218Z,100732.03
2018-07-30T02:05:40.325Z,100727.74
2018-07-30T02:08:09.466Z,100736.13
2018-07-30T02:10:38.569Z,100740.23
2018-07-30T02:13:07.702Z,100736.39
2018-07-30T02:15:36.827Z,100735.84
2018-07-30T02:18:06.195Z,100742.70
2018-07-30T02:20:35.397Z,100744.96
2018-07-30T02:23:04.524Z,100747.61
2018-07-30T02:25:33.642Z,100749.04
2018-07-30T02:28:02.802Z,100747.23
2018-07-30T02:30:32.536Z,100740.53
2018-07-30T02:33:01.640Z,100747.39
2018-07-30T02:35:30.814Z,100756.08
2018-07-30T02:37:59.977Z,100751.70
2018-07-30T02:40:29.091Z,100758.27
2018-07-30T02:42:58.247Z,100756.45
2018-07-30T02:45:27.396Z,100761.11
2018-07-30T02:47:56.530Z,100759.64
2018-07-30T02:50:25.694Z,100757.66
2018-07-30T02:52:54.811Z,100758.69
2018-07-30T02:55:23.934Z,100759.72
2018-07-30T02:57:53.047Z,100760.02
2018-07-30T03:00:22.211Z,100765.50
2018-07-30T03:02:51.342Z,100768.32
2018-07-30T03:05:20.514Z,100771.38
2018-07-30T03:07:49.807Z,100765.63
2018-07-30T03:10:18.924Z,100767.69
2018-07-30T03:12:48.073Z,100768.77
2018-07-30T03:15:17.219Z,100768.03
2018-07-30T03:17:46.331Z,100771.36
2018-07-30T03:20:15.482Z,100767.22
2018-07-30T03:22:44.593Z,100765.28
2018-07-30T03:25:13.740Z,100768.66
2018-07-30T03:27:42.860Z,100765.53
2018-07-30T03:30:12.042Z,100765.62
2018-07-30T03:32:41.162Z,100762.64
2018-07-30T03:35:10.329Z,100764.48
2018-07-30T03:37:39.465Z,100768.27
2018-07-30T03:40:08.689Z,100777.25
2018-07-30T03:42:37.940Z,100777.10
2018-07-30T03:45:07.877Z,100776.10
2018-07-30T03:47:36.986Z,100783.98
2018-07-30T03:50:06.566Z,100783.20
2018-07-30T03:52:35.758Z,100786.17
2018-07-30T03:55:05.265Z,100782.67
2018-07-30T03:57:34.407Z,100781.98
2018-07-30T04:00:03.760Z,100786.47
2018-07-30T04:02:32.829Z,100790.73
2018-07-30T04:05:01.966Z,100793.77
2018-07-30T04:07:31.096Z,100796.59
2018-07-30T04:10:00.241Z,100796.51
2018-07-30T04:12:29.395Z,100802.78
2018-07-30T04:14:58.491Z,100807.39
2018-07-30T04:17:27.609Z,100804.95
2018-07-30T04:19:56.729Z,100806.96
2018-07-30T04:22:25.850Z,100804.36
2018-07-30T04:24:55.067Z,100814.27
2018-07-30T04:27:24.229Z,100810.59
2018-07-30T04:29:53.366Z,100810.77
2018-07-30T04:32:22.521Z,100814.73
2018-07-30T04:34:52.286Z,100818.50
2018-07-30T04:37:21.414Z,100818.31
2018-07-30T04:39:50.545Z,100820.06
2018-07-30T04:42:19.697Z,100812.59
2018-07-30T04:44:48.861Z,100813.50
2018-07-30T04:47:17.990Z,100820.06
2018-07-30T04:49:47.125Z,100822.03
2018-07-30T04:52:16.270Z,100815.88
2018-07-30T04:54:45.413Z,100827.02
2018-07-30T04:57:14.586Z,100824.38
2018-07-30T04:59:43.678Z,100820.19
2018-07-30T05:02:12.900Z,100819.56
2018-07-30T05:04:42.021Z,100809.41
2018-07-30T05:07:11.147Z,100819.52
2018-07-30T05:12:54.522Z,100823.52
2018-07-30T05:17:51.694Z,100825.95
2018-07-30T05:20:20.881Z,100819.64
2018-07-30T05:22:50.017Z,100829.65
2018-07-30T05:25:19.134Z,100823.87
2018-07-30T05:27:48.273Z,100826.63
2018-07-30T05:30:17.409Z,100821.83
2018-07-30T05:32:46.537Z,100829.54
2018-07-30T05:35:15.630Z,100832.59
2018-07-30T05:37:44.773Z,100823.34
2018-07-30T05:40:13.916Z,100825.12
2018-07-30T05:42:43.067Z,100823.61
2018-07-30T05:45:12.162Z,100821.99
2018-07-30T05:47:41.306Z,100822.70
2018-07-30T05:50:10.423Z,100822.48
2018-07-30T05:52:39.553Z,100818.75
2018-07-30T05:55:08.758Z,100824.54
2018-07-30T05:57:37.876Z,100823.98
2018-07-30T06:00:07.278Z,100822.14
2018-07-30T06:02:36.403Z,100822.16
2018-07-30T06:05:06.467Z,100820.88
2018-07-30T06:07:35.599Z,100816.25
2018-07-30T06:10:05.459Z,100828.30
2018-07-30T06:12:34.603Z,100825.13
2018-07-30T06:15:03.778Z,100829.47
2018-07-30T06:17:32.876Z,100835.39
2018-07-30T06:20:01.989Z,100832.71
2018-07-30T06:22:31.099Z,100831.03
2018-07-30T06:25:00.221Z,100835.66
2018-07-30T06:27:29.396Z,100841.16
2018-07-30T06:29:58.469Z,100831.38
2018-07-30T06:32:27.585Z,100836.52
2018-07-30T06:34:56.924Z,100842.38
2018-07-30T06:37:26.115Z,100835.07
2018-07-30T06:39:55.304Z,100836.39
2018-07-30T06:42:24.450Z,100841.83
2018-07-30T06:44:53.644Z,100841.88
2018-07-30T06:47:22.773Z,100842.60
2018-07-30T06:49:51.873Z,100847.42
2018-07-30T06:52:21.070Z,100850.55
2018-07-30T06:54:50.208Z,100848.63
2018-07-30T06:57:19.340Z,100857.45
2018-07-30T06:59:48.446Z,100855.03
2018-07-30T07:02:17.598Z,100850.83
2018-07-30T07:04:46.702Z,100848.57
2018-07-30T07:07:15.818Z,100849.39
2018-07-30T07:09:44.913Z,100861.06
2018-07-30T07:12:14.045Z,100861.16
2018-07-30T07:14:43.173Z,100868.21
2018-07-30T07:17:12.298Z,100865.66
2018-07-30T07:19:41.419Z,100863.42
2018-07-30T07:22:10.526Z,100862.79
2018-07-30T07:24:39.692Z,100860.00
2018-07-30T07:27:08.865Z,100863.56
2018-07-30T07:29:37.950Z,100868.23
2018-07-30T07:32:07.248Z,100869.06
2018-07-30T07:34:36.413Z,100867.77
2018-07-30T07:37:05.616Z,100869.97
2018-07-30T07:39:34.752Z,100869.12
2018-07-30T07:42:03.899Z,100872.18
2018-07-30T07:44:33.010Z,100877.63
2018-07-30T07:47:02.161Z,100871.60
2018-07-30T07:49:31.380Z,100873.12
2018-07-30T07:52:00.482Z,100888.18
2018-07-30T07:54:29.629Z,100880.81
2018-07-30T07:56:58.741Z,100886.59
2018-07-30T07:59:27.909Z,100882.42
2018-07-30T08:01:57.059Z,100875.43
2018-07-30T08:04:26.167Z,100875.42
2018-07-30T08:06:55.293Z,100869.58
2018-07-30T08:09:24.413Z,100878.10
2018-07-30T08:11:53.549Z,100869.44
2018-07-30T08:14:23.619Z,100868.38
2018-07-30T08:16:52.729Z,100866.30
2018-07-30T08:19:21.874Z,100872.12
2018-07-30T08:21:51.010Z,100867.48
2018-07-30T08:24:20.181Z,100870.52
2018-07-30T08:26:49.331Z,100862.91
2018-07-30T08:29:18.501Z,100876.58
2018-07-30T08:31:47.763Z,100865.06
2018-07-30T08:34:16.889Z,100869.12
2018-07-30T08:36:46.166Z,100860.80
2018-07-30T08:39:15.324Z,100855.44
2018-07-30T08:41:44.437Z,100859.62
2018-07-30T08:44:13.578Z,100861.08
2018-07-30T08:46:42.721Z,100860.80
2018-07-30T08:49:11.857Z,100857.22
2018-07-30T08:51:40.981Z,100860.28
2018-07-30T08:54:10.147Z,100859.62
2018-07-30T08:56:39.326Z,100862.67
2018-07-30T08:59:08.434Z,100861.81
2018-07-30T09:01:37.570Z,100861.02
2018-07-30T09:04:06.756Z,100858.11
2018-07-30T09:06:35.890Z,100858.67
2018-07-30T09:09:07.909Z,100859.83
2018-07-30T09:11:37.411Z,100854.44
2018-07-30T09:14:06.793Z,100848.95
2018-07-30T09:16:35.993Z,100851.91
2018-07-30T09:19:05.593Z,100843.84
2018-07-30T09:21:34.770Z,100844.50
2018-07-30T09:24:03.990Z,100844.34
2018-07-30T09:26:33.153Z,100843.70
2018-07-30T09:29:02.334Z,100842.53
2018-07-30T09:31:32.295Z,100843.77
2018-07-30T09:34:01.490Z,100844.38
2018-07-30T09:36:30.628Z,100846.33
2018-07-30T09:38:59.757Z,100841.16
2018-07-30T09:41:28.912Z,100842.16
2018-07-30T09:43:58.042Z,100833.34
2018-07-30T09:46:27.163Z,100833.30
2018-07-30T09:48:56.294Z,100831.24
2018-07-30T09:51:25.442Z,100825.59
2018-07-30T09:53:54.623Z,100827.72
2018-07-30T09:56:23.759Z,100824.61
2018-07-30T09:58:52.913Z,100826.02
2018-07-30T10:01:28.626Z,100820.03
2018-07-30T10:03:58.977Z,100822.34
2018-07-30T10:06:28.110Z,100821.43
2018-07-30T10:08:57.301Z,100815.24
2018-07-30T10:11:26.549Z,100816.95
2018-07-30T10:13:55.649Z,100815.81
2018-07-30T10:16:24.767Z,100810.08
2018-07-30T10:18:53.933Z,100810.15
2018-07-30T10:21:29.157Z,100806.30
2018-07-30T10:23:58.299Z,100802.44
2018-07-30T10:26:27.441Z,100809.54
2018-07-30T10:28:56.640Z,100805.52
2018-07-30T10:31:25.779Z,100814.26
2018-07-30T10:33:54.927Z,100806.24
2018-07-30T10:36:24.137Z,100799.57
2018-07-30T10:38:53.344Z,100805.09
2018-07-30T10:41:22.547Z,100805.59
2018-07-30T10:43:51.726Z,100796.48
2018-07-30T10:46:20.949Z,100795.11
2018-07-30T10:48:50.041Z,100790.34
2018-07-30T10:51:19.145Z,100780.75
2018-07-30T10:53:48.316Z,100784.06
2018-07-30T10:56:17.397Z,100780.67
2018-07-30T10:58:46.512Z,100776.54
2018-07-30T11:01:15.667Z,100782.67
2018-07-30T11:03:44.784Z,100773.20
2018-07-30T11:06:14.066Z,100774.12
2018-07-30T11:08:43.202Z,100767.42
2018-07-30T11:11:12.326Z,100763.70
2018-07-30T11:13:58.253Z,100768.63
2018-07-30T11:16:27.369Z,100773.99
2018-07-30T11:18:56.481Z,100770.05
2018-07-30T11:21:25.663Z,100770.91
2018-07-30T11:23:54.784Z,100768.89
2018-07-30T11:26:23.886Z,100764.65
2018-07-30T11:28:53.090Z,100766.90
2018-07-30T11:31:22.234Z,100760.88
2018-07-30T11:33:51.369Z,100756.36
2018-07-30T11:36:20.501Z,100758.00
2018-07-30T11:38:49.626Z,100752.04
2018-07-30T11:41:18.742Z,100760.38
2018-07-30T11:43:48.878Z,100760.66
2018-07-30T11:46:17.998Z,100743.98
2018-07-30T11:48:47.195Z,100746.84
2018-07-30T11:51:16.262Z,100747.56
2018-07-30T11:53:45.411Z,100740.38
2018-07-30T11:56:14.560Z,100731.91
2018-07-30T11:58:43.673Z,100734.09
2018-07-30T12:01:12.832Z,100723.48
2018-07-30T12:03:41.981Z,100730.06
2018-07-30T12:06:11.146Z,100725.36
2018-07-30T12:08:40.291Z,100724.27
2018-07-30T12:11:09.456Z,100721.97
2018-07-30T12:13:38.712Z,100725.38
2018-07-30T12:16:07.821Z,100720.80
2018-07-30T12:18:37.035Z,100728.02
2018-07-30T12:21:06.197Z,100725.78
2018-07-30T12:23:35.669Z,100714.97
2018-07-30T12:26:04.833Z,100726.34
2018-07-30T12:28:33.948Z,100717.58
2018-07-30T12:31:03.121Z,100721.50
2018-07-30T12:33:32.284Z,100711.23
2018-07-30T12:36:01.465Z,100711.11
2018-07-30T12:38:30.610Z,100712.20
2018-07-30T12:40:59.717Z,100711.95
2018-07-30T12:43:28.878Z,100710.91
2018-07-30T12:45:58.015Z,100708.08
2018-07-30T12:48:27.171Z,100701.84
2018-07-30T12:50:56.425Z,100707.33
2018-07-30T12:53:25.553Z,100702.77
2018-07-30T12:55:54.696Z,100708.56
2018-07-30T12:58:23.831Z,100702.66
2018-07-30T13:00:54.029Z,100699.84
2018-07-30T13:03:23.199Z,100699.44
2018-07-30T13:05:52.376Z,100698.71
2018-07-30T13:08:21.567Z,100696.58
2018-07-30T13:10:50.682Z,100693.73
2018-07-30T13:13:19.829Z,100691.11
2018-07-30T13:15:48.973Z,100697.02
2018-07-30T13:18:18.161Z,100694.48
2018-07-30T13:20:47.344Z,100688.14
2018-07-30T13:23:16.480Z,100690.22
2018-07-30T13:25:45.662Z,100686.58
2018-07-30T13:28:14.778Z,100687.52
2018-07-30T13:30:44.055Z,100689.52
2018-07-30T13:33:13.185Z,100684.70
2018-07-30T13:35:42.309Z,100676.63
2018-07-30T13:38:11.446Z,100678.92
2018-07-30T13:40:40.646Z,100671.19
2018-07-30T13:43:09.817Z,100674.84
2018-07-30T13:45:39.786Z,100677.86
2018-07-30T13:48:08.940Z,100672.67
2018-07-30T13:50:38.095Z,100671.50
2018-07-30T13:53:07.306Z,100670.47
2018-07-30T13:55:36.651Z,100672.12
2018-07-30T13:58:05.925Z,100675.38
2018-07-30T14:00:35.178Z,100673.98
2018-07-30T14:03:04.363Z,100664.98
2018-07-30T14:05:33.521Z,100674.02
2018-07-30T14:08:02.667Z,100671.27
2018-07-30T14:10:31.786Z,100669.23
2018-07-30T14:13:02.018Z,100670.77
2018-07-30T14:15:31.201Z,100669.59
2018-07-30T14:18:00.347Z,100677.48
2018-07-30T14:20:29.475Z,100673.98
2018-07-30T14:22:58.639Z,100673.33
2018-07-30T14:25:27.870Z,100669.81
2018-07-30T14:27:57.045Z,100669.52
2018-07-30T14:30:26.169Z,100668.05
2018-07-30T14:32:55.329Z,100670.80
2018-07-30T14:35:24.504Z,100668.46
2018-07-30T14:37:53.642Z,100673.48
2018-07-30T14:40:22.844Z,100667.34
2018-07-30T14:42:51.978Z,100666.06
2018-07-30T14:45:21.157Z,100667.43
2018-07-30T14:47:50.340Z,100662.55
2018-07-30T14:50:19.458Z,100664.90
2018-07-30T14:52:48.670Z,100654.16
2018-07-30T14:55:17.797Z,100651.23
2018-07-30T14:57:46.921Z,100645.86
2018-07-30T15:00:16.116Z,100641.30
2018-07-30T15:02:45.253Z,100638.97
2018-07-30T15:05:18.546Z,100637.63
2018-07-30T15:07:47.741Z,100635.89
2018-07-30T15:10:16.901Z,100632.30
2018-07-30T15:12:46.112Z,100626.94
2018-07-30T15:15:15.291Z,100637.06
2018-07-30T15:17:44.438Z,100632.34
2018-07-30T15:20:13.565Z,100629.89
2018-07-30T15:22:42.685Z,100632.34
2018-07-30T15:25:11.922Z,100631.52
2018-07-30T15:27:41.049Z,100626.30
2018-07-30T15:30:10.202Z,100618.48
2018-07-30T15:32:39.310Z,100626.55
2018-07-30T15:35:08.488Z,100624.38
2018-07-30T15:37:37.785Z,100622.27
2018-07-30T15:40:07.270Z,100618.70
2018-07-30T15:42:36.438Z,100620.96
2018-07-30T15:45:05.806Z,100616.57
2018-07-30T15:47:34.994Z,100611.76
2018-07-30T15:50:04.274Z,100622.48
2018-07-30T15:52:38.018Z,100622.03
2018-07-30T15:55:07.315Z,100622.00
2018-07-30T15:57:36.478Z,100617.78
2018-07-30T16:00:06.962Z,100621.78
2018-07-30T16:02:36.209Z,100618.80
2018-07-30T16:05:05.531Z,100622.31
2018-07-30T16:07:34.726Z,100620.59
2018-07-30T16:10:04.158Z,100616.02
2018-07-30T16:12:33.326Z,100615.94
2018-07-30T16:15:02.442Z,100613.59
2018-07-30T16:17:31.652Z,100617.09
2018-07-30T16:20:00.785Z,100610.95
2018-07-30T16:22:29.902Z,100618.90
2018-07-30T16:24:59.065Z,100615.47
2018-07-30T16:27:28.204Z,100617.15
2018-07-30T16:29:57.393Z,100610.93
2018-07-30T16:32:27.219Z,100614.80
2018-07-30T16:34:56.413Z,100613.64
2018-07-30T16:37:25.558Z,100609.38
2018-07-30T16:39:54.746Z,100617.88
2018-07-30T16:42:23.888Z,100612.56
2018-07-30T16:44:53.027Z,100612.69
2018-07-30T16:47:22.220Z,100616.77
2018-07-30T16:49:51.538Z,100616.34
2018-07-30T16:52:20.813Z,100611.56
2018-07-30T16:54:50.021Z,100613.67
2018-07-30T16:57:19.406Z,100617.55
2018-07-30T16:59:48.709Z,100624.23
2018-07-30T17:02:21.490Z,100623.16
2018-07-30T17:04:50.751Z,100623.84
2018-07-30T17:07:20.807Z,100630.21
2018-07-30T17:09:50.013Z,100623.41
2018-07-30T17:12:20.729Z,100630.15
2018-07-30T17:14:50.873Z,100624.33
2018-07-30T17:17:34.070Z,100625.02
2018-07-30T17:20:08.771Z,100629.36
2018-07-30T17:22:38.022Z,100630.41
2018-07-30T17:25:07.211Z,100634.81
2018-07-30T17:27:36.394Z,100630.83
2018-07-30T17:30:05.895Z,100631.27
2018-07-30T17:32:36.094Z,100630.36
2018-07-30T17:35:05.488Z,100624.36
2018-07-30T17:37:34.809Z,100631.81
2018-07-30T17:40:04.869Z,100626.28
2018-07-30T17:42:34.040Z,100632.05
2018-07-30T17:45:03.234Z,100632.00
2018-07-30T17:47:33.279Z,100637.68
2018-07-30T17:50:02.434Z,100640.14
2018-07-30T17:52:31.548Z,100632.66
2018-07-30T17:55:00.712Z,100634.00
2018-07-30T17:57:29.861Z,100636.99
2018-07-30T17:59:59.361Z,100634.30
2018-07-30T18:02:31.833Z,100635.16
2018-07-30T18:05:01.032Z,100636.17
2018-07-30T18:07:30.165Z,100642.11
2018-07-30T18:09:59.393Z,100642.70
2018-07-30T18:12:28.561Z,100637.88
2018-07-30T18:15:02.294Z,100643.62
2018-07-30T18:17:31.442Z,100649.53
2018-07-30T18:20:06.834Z,100652.22
2018-07-30T18:22:36.006Z,100649.66
2018-07-30T18:25:15.994Z,100654.64
2018-07-30T18:27:45.265Z,100654.20
2018-07-30T18:30:14.530Z,100650.09
2018-07-30T18:32:44.332Z,100657.55
2018-07-30T18:35:13.530Z,100656.02
2018-07-30T18:37:42.696Z,100649.70
2018-07-30T18:40:11.892Z,100652.27
2018-07-30T18:42:41.022Z,100645.31
2018-07-30T18:45:12.250Z,100653.45
2018-07-30T18:47:45.215Z,100658.75
2018-07-30T18:50:14.472Z,100660.23
2018-07-30T18:52:48.115Z,100665.72
2018-07-30T18:55:18.262Z,100662.95
2018-07-30T18:57:47.877Z,100664.66
2018-07-30T19:00:17.269Z,100668.05
2018-07-30T19:02:46.594Z,100666.10
2018-07-30T19:05:16.000Z,100669.12
2018-07-30T19:07:45.287Z,100679.56
2018-07-30T19:10:14.602Z,100683.45
2018-07-30T19:12:43.780Z,100695.32
2018-07-30T19:15:12.914Z,100687.95
2018-07-30T19:17:43.381Z,100696.77
2018-07-30T19:20:12.713Z,100696.44
2018-07-30T19:22:44.533Z,100699.91
2018-07-30T19:25:17.813Z,100704.14
2018-07-30T19:27:47.767Z,100705.93
2018-07-30T19:30:17.169Z,100707.94
2018-07-30T19:32:46.607Z,100712.83
2018-07-30T19:35:15.858Z,100719.41
2018-07-30T19:37:45.053Z,100712.95
2018-07-30T19:40:14.227Z,100717.94
2018-07-30T19:42:43.424Z,100716.85
2018-07-30T19:45:12.557Z,100715.27
2018-07-30T19:47:41.693Z,100720.03
2018-07-30T19:50:11.422Z,100732.08
2018-07-30T19:52:40.709Z,100729.37
2018-07-30T19:55:09.828Z,100736.72
2018-07-30T19:57:39.099Z,100739.05
2018-07-30T20:00:08.755Z,100735.17
2018-07-30T20:02:38.472Z,100737.73
2018-07-30T20:05:08.413Z,100742.06
2018-07-30T20:07:37.601Z,100744.50
2018-07-30T20:10:06.897Z,100748.05
2018-07-30T20:12:36.094Z,100756.22
2018-07-30T20:15:05.749Z,100754.77
2018-07-30T20:17:43.875Z,100757.22
2018-07-30T20:20:18.123Z,100758.52
2018-07-30T20:22:49.606Z,100770.11
2018-07-30T20:25:18.997Z,100766.63
2018-07-30T20:27:48.501Z,100765.06
2018-07-30T20:30:18.209Z,100760.63
2018-07-30T20:32:47.400Z,100768.27
2018-07-30T20:35:16.729Z,100771.00
2018-07-30T20:37:46.288Z,100767.69
2018-07-30T20:40:15.468Z,100774.80
2018-07-30T20:42:44.712Z,100775.42
2018-07-30T20:45:14.009Z,100773.69
2018-07-30T20:47:43.108Z,100772.83
2018-07-30T20:50:12.589Z,100771.85
2018-07-30T20:52:41.676Z,100775.06
2018-07-30T20:55:10.833Z,100775.83
2018-07-30T20:57:40.041Z,100779.55
2018-07-30T21:00:09.201Z,100779.34
2018-07-30T21:02:38.328Z,100788.09
2018-07-30T21:05:07.429Z,100792.58
2018-07-30T21:07:36.580Z,100784.91
2018-07-30T21:10:06.009Z,100786.63
2018-07-30T21:12:35.133Z,100791.50
2018-07-30T21:15:04.757Z,100783.31
2018-07-30T21:17:33.925Z,100788.05
2018-07-30T21:20:03.485Z,100789.17
2018-07-30T21:22:32.621Z,100795.80
2018-07-30T21:25:01.741Z,100795.48
2018-07-30T21:27:30.846Z,100801.52
2018-07-30T21:29:59.929Z,100802.03
2018-07-30T21:32:29.037Z,100798.01
2018-07-30T21:34:58.118Z,100802.29
2018-07-30T21:37:27.247Z,100798.71
2018-07-30T21:39:56.346Z,100804.15
2018-07-30T21:42:25.457Z,100797.78
2018-07-30T21:44:54.590Z,100797.39
2018-07-30T21:47:23.729Z,100802.14
2018-07-30T21:49:52.777Z,100798.30
2018-07-30T21:52:22.049Z,100801.69
2018-07-30T21:54:51.229Z,100803.27
2018-07-30T21:57:20.425Z,100800.98
2018-07-30T21:59:49.633Z,100798.45
2018-07-30T22:02:18.749Z,100800.44
2018-07-30T22:04:47.884Z,100805.42
2018-07-30T22:07:16.987Z,100800.64
2018-07-30T22:09:46.154Z,100801.03
2018-07-30T22:12:15.289Z,100809.91
2018-07-30T22:14:44.390Z,100806.57
2018-07-30T22:17:13.500Z,100805.25
2018-07-30T22:19:42.669Z,100807.13
2018-07-30T22:22:11.769Z,100807.38
2018-07-30T22:24:40.897Z,100806.32
2018-07-30T22:27:10.041Z,100811.98
2018-07-30T22:29:39.124Z,100811.89
2018-07-30T22:32:08.275Z,100806.37
2018-07-30T22:34:37.381Z,100809.41
2018-07-30T22:37:06.473Z,100805.33
2018-07-30T22:39:35.573Z,100807.32
2018-07-30T22:42:04.674Z,100805.44
2018-07-30T22:44:33.757Z,100805.56
2018-07-30T22:47:02.880Z,100807.56
2018-07-30T22:49:31.988Z,100815.63
2018-07-30T22:52:01.116Z,100810.55
2018-07-30T22:54:30.317Z,100808.81
2018-07-30T22:56:59.444Z,100811.87
2018-07-30T22:59:28.584Z,100815.22
2018-07-30T23:01:57.690Z,100813.09
2018-07-30T23:04:26.777Z,100814.08
2018-07-30T23:06:55.873Z,100817.53
2018-07-30T23:09:24.987Z,100811.42
2018-07-30T23:11:54.096Z,100809.09
2018-07-30T23:14:23.202Z,100814.16
2018-07-30T23:16:52.289Z,100813.66
2018-07-30T23:19:21.400Z,100813.30
2018-07-30T23:21:50.544Z,100814.57
2018-07-30T23:24:19.641Z,100812.98
2018-07-30T23:26:48.769Z,100815.36
2018-07-30T23:29:17.891Z,100816.45
2018-07-30T23:31:46.978Z,100819.11
2018-07-30T23:34:16.121Z,100819.72
2018-07-30T23:36:45.260Z,100820.73
2018-07-30T23:39:14.329Z,100812.22
2018-07-30T23:41:43.419Z,100812.83
2018-07-30T23:44:12.575Z,100814.37
2018-07-30T23:46:41.596Z,100810.64
2018-07-30T23:49:10.672Z,100816.17
2018-07-30T23:51:39.785Z,100807.07
2018-07-30T23:54:08.869Z,100809.38
2018-07-30T23:56:37.944Z,100808.16
2018-07-30T23:59:07.037Z,100808.88
